Time;durP1;ratioP1;P1;durP2;ratioP2;P2;SDS_P1;SDS_P2;PMS_P1;PMS_P2;Temp;Humidity;BMP_temperature;BMP_pressure;BME280_temperature;BME280_humidity;BME280_pressure;Samples;Min_cycle;Max_cycle;Signal;HPM_P1;HPM_P2
2023/05/15 00:00:12;;;;;;;;;;;12.30;55.90;;;;;;4088157;28;20005;-85
2023/05/15 00:02:45;;;;;;;;;;;12.20;55.90;;;;;;4087418;28;19961;-86
2023/05/15 00:05:06;;;;;;;;;;;12.20;55.90;;;;;;4078466;29;20479;-87
2023/05/15 00:07:30;;;;;;;;;;;12.20;55.80;;;;;;4076966;29;20289;-85
2023/05/15 00:09:50;;;;;;;;;;;12.10;55.90;;;;;;4087602;28;19973;-85
2023/05/15 00:12:11;;;;;;;;;;;12.10;55.50;;;;;;4090027;28;20068;-86
2023/05/15 00:14:35;;;;;;;;;;;12.10;55.90;;;;;;4080503;28;19919;-85
2023/05/15 00:16:58;;;;;;;;;;;12.10;55.20;;;;;;4072496;28;19915;-86
2023/05/15 00:19:19;;;;;;;;;;;12.10;55.80;;;;;;4088832;28;19921;-86
2023/05/15 00:21:39;;;;;;;;;;;12.00;55.30;;;;;;4089127;28;19914;-86
2023/05/15 00:23:40;;;;;;;;;;;12.00;55.70;;;;;;4085217;28;19922;-86
2023/05/15 00:26:12;;;;;;;;;;;12.00;56.00;;;;;;4088069;28;20638;-86
2023/05/15 00:28:33;;;;;;;;;;;12.00;55.50;;;;;;4077193;28;19923;-86
2023/05/15 00:30:53;;;;;;;;;;;12.00;56.50;;;;;;4088835;28;19926;-86
2023/05/15 00:33:14;;;;;;;;;;;11.80;56.70;;;;;;4074395;29;20309;-86
2023/05/15 00:35:35;;;;;;;;;;;11.90;57.20;;;;;;4076810;29;19915;-85
2023/05/15 00:37:58;;;;;;;;;;;11.80;56.50;;;;;;4087269;28;19919;-86
2023/05/15 00:40:21;;;;;;;;;;;11.80;56.00;;;;;;4074578;29;19969;-86
2023/05/15 00:42:41;;;;;;;;;;;11.80;56.50;;;;;;4077108;29;19930;-86
2023/05/15 00:45:10;;;;;;;;;;;11.80;56.70;;;;;;4086882;28;20426;-86
2023/05/15 00:47:11;;;;;;;;;;;11.70;56.80;;;;;;4074748;29;20014;-86
2023/05/15 00:49:13;;;;;;;;;;;11.70;56.90;;;;;;4087079;28;19915;-86
2023/05/15 00:51:34;;;;;;;;;;;11.70;56.70;;;;;;4087706;28;19925;-86
2023/05/15 00:53:55;;;;;;;;;;;11.70;56.90;;;;;;4074985;29;19919;-86
2023/05/15 00:56:16;;;;;;;;;;;11.60;57.10;;;;;;4082338;28;19958;-85
2023/05/15 00:58:37;;;;;;;;;;;11.60;57.30;;;;;;4070779;29;19911;-87
2023/05/15 01:00:58;;;;;;;;;;;11.60;56.80;;;;;;4087464;28;19970;-86
2023/05/15 01:03:19;;;;;;;;;;;11.50;56.70;;;;;;4074085;29;21097;-86
2023/05/15 01:05:39;;;;;;;;;;;11.50;56.60;;;;;;4069575;29;19933;-86
2023/05/15 01:08:15;;;;;;;;;;;11.50;57.20;;;;;;4085338;28;19980;-85
2023/05/15 01:10:36;;;;;;;;;;;11.50;57.30;;;;;;4085719;28;19957;-86
2023/05/15 01:13:00;;;;;;;;;;;11.40;57.40;;;;;;4073576;28;19929;-85
2023/05/15 01:15:22;;;;;;;;;;;11.40;57.60;;;;;;4070673;29;20573;-85
2023/05/15 01:17:22;;;;;;;;;;;11.30;57.60;;;;;;4073325;29;19919;-86
2023/05/15 01:19:35;;;;;;;;;;;11.40;57.80;;;;;;4069667;29;20005;-85
2023/05/15 01:22:15;;;;;;;;;;;11.40;57.60;;;;;;4086569;28;19914;-85
2023/05/15 01:24:42;;;;;;;;;;;11.40;57.60;;;;;;4087071;28;19918;-86
2023/05/15 01:27:03;;;;;;;;;;;11.30;57.40;;;;;;4054538;29;19970;-85
2023/05/15 01:29:29;;;;;;;;;;;11.20;57.90;;;;;;4075891;29;19918;-85
2023/05/15 01:31:52;;;;;;;;;;;11.30;57.60;;;;;;4088299;28;19932;-85
2023/05/15 01:34:17;;;;;;;;;;;11.20;57.20;;;;;;4085840;28;19922;-85
2023/05/15 01:36:44;;;;;;;;;;;11.20;57.90;;;;;;4084583;28;19918;-86
2023/05/15 01:39:06;;;;;;;;;;;11.10;58.00;;;;;;4089338;28;19919;-86
2023/05/15 01:41:29;;;;;;;;;;;11.00;57.80;;;;;;4091587;28;20536;-85
2023/05/15 01:43:54;;;;;;;;;;;11.00;58.20;;;;;;4089542;28;19915;-84
2023/05/15 01:46:18;;;;;;;;;;;10.90;57.80;;;;;;4087974;28;19937;-85
2023/05/15 01:48:39;;;;;;;;;;;10.90;57.80;;;;;;4085557;28;19926;-86
2023/05/15 01:51:01;;;;;;;;;;;10.80;58.00;;;;;;4089470;28;20384;-86
2023/05/15 01:53:31;;;;;;;;;;;10.80;58.00;;;;;;4074721;29;19915;-85
2023/05/15 01:55:36;;;;;;;;;;;10.80;58.00;;;;;;4088706;28;19914;-86
2023/05/15 01:57:37;;;;;;;;;;;10.70;58.10;;;;;;4091397;28;20452;-86
2023/05/15 01:59:38;;;;;;;;;;;10.70;58.20;;;;;;4078563;29;19994;-86
2023/05/15 02:01:40;;;;;;;;;;;10.80;58.20;;;;;;4053940;29;19915;-85
2023/05/15 02:03:53;;;;;;;;;;;10.70;58.20;;;;;;4056296;29;19930;-86
2023/05/15 02:05:56;;;;;;;;;;;10.60;58.40;;;;;;4073095;29;20008;-85
2023/05/15 02:08:27;;;;;;;;;;;10.70;58.60;;;;;;4087796;28;20385;-86
2023/05/15 02:10:51;;;;;;;;;;;10.60;58.40;;;;;;4087033;28;20450;-85
2023/05/15 02:15:56;;;;;;;;;;;10.60;58.50;;;;;;4027041;29;20407;-85
2023/05/15 02:18:16;;;;;;;;;;;10.50;58.50;;;;;;4016489;29;19928;-86
2023/05/15 02:20:40;;;;;;;;;;;10.60;58.80;;;;;;4024584;29;20371;-86
2023/05/15 02:23:00;;;;;;;;;;;10.50;58.80;;;;;;4016094;29;20435;-86
2023/05/15 02:25:26;;;;;;;;;;;10.50;59.00;;;;;;4028362;29;20498;-87
2023/05/15 02:27:53;;;;;;;;;;;10.40;59.20;;;;;;4026114;29;19919;-86
2023/05/15 02:30:19;;;;;;;;;;;10.40;58.60;;;;;;4012886;29;19925;-86
2023/05/15 02:32:29;;;;;;;;;;;10.30;58.30;;;;;;4012529;29;19935;-85
2023/05/15 02:34:36;;;;;;;;;;;10.30;58.30;;;;;;4029679;29;19924;-86
2023/05/15 02:36:40;;;;;;;;;;;10.30;58.50;;;;;;4028054;29;20280;-86
2023/05/15 02:38:47;;;;;;;;;;;10.30;58.70;;;;;;4012847;29;19926;-86
2023/05/15 02:40:51;;;;;;;;;;;10.20;58.40;;;;;;4011661;29;20459;-85
2023/05/15 02:43:12;;;;;;;;;;;10.20;58.70;;;;;;4013815;29;20771;-86
2023/05/15 02:45:34;;;;;;;;;;;10.20;59.10;;;;;;4023891;29;20341;-86
2023/05/15 02:47:57;;;;;;;;;;;10.10;59.00;;;;;;4024499;29;19924;-86
2023/05/15 02:50:17;;;;;;;;;;;10.10;59.10;;;;;;4010204;29;20466;-86
2023/05/15 02:52:35;;;;;;;;;;;10.00;60.10;;;;;;4019924;29;19915;-86
2023/05/15 02:54:55;;;;;;;;;;;10.00;59.40;;;;;;4089576;28;19922;-86
2023/05/15 02:57:16;;;;;;;;;;;9.90;59.20;;;;;;4078423;28;20382;-86
2023/05/15 02:59:36;;;;;;;;;;;9.90;59.50;;;;;;4087834;28;20685;-86
2023/05/15 03:01:57;;;;;;;;;;;9.90;59.50;;;;;;4125588;23;20707;-86
2023/05/15 03:04:25;;;;;;;;;;;9.80;59.10;;;;;;4135749;28;19914;-86
2023/05/15 03:07:00;;;;;;;;;;;9.80;59.00;;;;;;4119826;28;20526;-87
2023/05/15 03:09:21;;;;;;;;;;;9.80;59.00;;;;;;4133340;28;20680;-86
2023/05/15 03:11:21;;;;;;;;;;;9.80;59.30;;;;;;4123389;28;19914;-86
2023/05/15 03:13:22;;;;;;;;;;;9.80;59.20;;;;;;4105211;28;20013;-86
2023/05/15 03:15:22;;;;;;;;;;;9.70;59.30;;;;;;4117984;28;19922;-86
2023/05/15 03:17:23;;;;;;;;;;;9.70;59.20;;;;;;4136316;28;19997;-86
2023/05/15 03:19:24;;;;;;;;;;;9.70;59.30;;;;;;4119598;28;20680;-86
2023/05/15 03:21:25;;;;;;;;;;;9.60;59.30;;;;;;4124033;28;19921;-86
2023/05/15 03:23:46;;;;;;;;;;;9.60;59.10;;;;;;4136541;28;20359;-86
2023/05/15 03:25:48;;;;;;;;;;;9.60;58.90;;;;;;4138893;28;19929;-86
2023/05/15 03:28:18;;;;;;;;;;;9.60;58.90;;;;;;4135538;28;19921;-85
2023/05/15 03:30:42;;;;;;;;;;;9.60;59.00;;;;;;4124394;28;21665;-86
2023/05/15 03:33:02;;;;;;;;;;;9.50;59.30;;;;;;4132671;28;21144;-86
2023/05/15 03:35:24;;;;;;;;;;;9.50;59.40;;;;;;4120957;28;20831;-86
2023/05/15 03:37:45;;;;;;;;;;;9.50;59.20;;;;;;4136721;28;20344;-86
2023/05/15 03:40:17;;;;;;;;;;;9.60;59.30;;;;;;4139556;28;20327;-85
2023/05/15 03:42:38;;;;;;;;;;;9.40;59.40;;;;;;4137174;28;19913;-85
2023/05/15 03:45:01;;;;;;;;;;;9.50;59.60;;;;;;4138407;28;20514;-86
2023/05/15 03:47:22;;;;;;;;;;;9.50;59.70;;;;;;4125566;28;20061;-85
2023/05/15 03:49:42;;;;;;;;;;;9.50;59.50;;;;;;4120966;28;19918;-86
2023/05/15 03:52:03;;;;;;;;;;;9.50;59.10;;;;;;4125971;28;20661;-85
2023/05/15 03:54:04;;;;;;;;;;;9.50;59.40;;;;;;4137942;28;19956;-86
2023/05/15 03:56:05;;;;;;;;;;;9.50;59.70;;;;;;4117051;28;19929;-86
2023/05/15 03:58:05;;;;;;;;;;;9.50;59.80;;;;;;4105240;28;20580;-85
2023/05/15 04:00:09;;;;;;;;;;;9.50;59.80;;;;;;4118367;28;19989;-86
2023/05/15 04:02:18;;;;;;;;;;;9.50;59.80;;;;;;4124204;28;19926;-86
2023/05/15 04:04:18;;;;;;;;;;;9.60;59.80;;;;;;4138550;28;19929;-85
2023/05/15 04:06:21;;;;;;;;;;;9.50;60.20;;;;;;4115589;28;19921;-85
2023/05/15 04:08:25;;;;;;;;;;;9.60;60.80;;;;;;4139656;28;19920;-85
2023/05/15 04:10:33;;;;;;;;;;;9.60;61.10;;;;;;4107875;28;19918;-85
2023/05/15 04:12:34;;;;;;;;;;;9.60;60.90;;;;;;4137916;28;19917;-86
2023/05/15 04:14:35;;;;;;;;;;;9.60;61.00;;;;;;4138627;28;20225;-86
2023/05/15 04:16:35;;;;;;;;;;;9.60;61.50;;;;;;4123868;28;19917;-85
2023/05/15 04:18:36;;;;;;;;;;;9.60;61.70;;;;;;4121885;28;19914;-86
2023/05/15 04:20:42;;;;;;;;;;;9.70;62.00;;;;;;4140177;28;19914;-86
2023/05/15 04:22:43;;;;;;;;;;;9.70;62.70;;;;;;4106440;28;20009;-86
2023/05/15 04:24:50;;;;;;;;;;;9.80;63.30;;;;;;4119152;28;19922;-85
2023/05/15 04:26:54;;;;;;;;;;;9.80;64.10;;;;;;4135230;28;19917;-86
2023/05/15 04:29:11;;;;;;;;;;;9.80;64.70;;;;;;4123107;28;19922;-86
2023/05/15 04:31:22;;;;;;;;;;;9.80;65.20;;;;;;4123277;28;19924;-86
2023/05/15 04:33:23;;;;;;;;;;;10.00;65.80;;;;;;4121557;28;19943;-86
2023/05/15 04:35:26;;;;;;;;;;;10.00;66.20;;;;;;4122127;28;19941;-85
2023/05/15 04:37:27;;;;;;;;;;;10.10;67.00;;;;;;4121519;28;20016;-86
2023/05/15 04:39:27;;;;;;;;;;;10.20;66.50;;;;;;4122634;28;20380;-85
2023/05/15 04:41:40;;;;;;;;;;;10.20;66.50;;;;;;4121552;28;19921;-87
2023/05/15 04:43:53;;;;;;;;;;;10.20;67.30;;;;;;4109193;28;20009;-85
2023/05/15 04:46:00;;;;;;;;;;;10.40;68.40;;;;;;4105244;28;20534;-86
2023/05/15 04:48:45;;;;;;;;;;;10.50;68.60;;;;;;4117073;28;20099;-85
2023/05/15 04:50:46;;;;;;;;;;;10.50;68.80;;;;;;4117235;28;19941;-87
2023/05/15 04:52:48;;;;;;;;;;;10.60;69.10;;;;;;4123612;28;21109;-86
2023/05/15 04:55:01;;;;;;;;;;;10.70;69.60;;;;;;4117459;28;19920;-86
2023/05/15 04:57:03;;;;;;;;;;;10.80;70.20;;;;;;4134295;28;19917;-86
2023/05/15 04:59:23;;;;;;;;;;;10.90;70.60;;;;;;4119395;28;19922;-87
2023/05/15 05:01:29;;;;;;;;;;;11.00;71.20;;;;;;4132978;28;19921;-87
2023/05/15 05:03:49;;;;;;;;;;;11.20;71.60;;;;;;4118910;28;20372;-85
2023/05/15 05:06:10;;;;;;;;;;;11.20;71.90;;;;;;4114295;28;20075;-86
2023/05/15 05:08:30;;;;;;;;;;;11.40;72.10;;;;;;4131722;28;20348;-87
2023/05/15 05:10:56;;;;;;;;;;;11.40;72.00;;;;;;4134514;28;20676;-86
2023/05/15 05:13:21;;;;;;;;;;;11.60;72.00;;;;;;4118544;28;20303;-87
2023/05/15 05:15:42;;;;;;;;;;;11.80;71.90;;;;;;4123062;28;19984;-86
2023/05/15 05:18:03;;;;;;;;;;;11.90;71.80;;;;;;4134513;28;20014;-86
2023/05/15 05:20:23;;;;;;;;;;;11.90;71.70;;;;;;4131882;28;19914;-86
2023/05/15 05:22:44;;;;;;;;;;;12.10;71.70;;;;;;4121984;28;19917;-87
2023/05/15 05:25:05;;;;;;;;;;;12.30;72.20;;;;;;4133673;28;19939;-87
2023/05/15 05:27:12;;;;;;;;;;;12.40;72.50;;;;;;4138075;28;19953;-87
2023/05/15 05:29:15;;;;;;;;;;;12.50;72.50;;;;;;4117950;28;19976;-86
2023/05/15 05:31:22;;;;;;;;;;;12.70;73.00;;;;;;4133551;28;19940;-87
2023/05/15 05:33:23;;;;;;;;;;;12.70;73.00;;;;;;4103972;28;19918;-86
2023/05/15 05:35:23;;;;;;;;;;;12.80;73.50;;;;;;4132848;28;20285;-86
2023/05/15 05:37:24;;;;;;;;;;;13.00;72.60;;;;;;4118131;28;19913;-87
2023/05/15 05:39:25;;;;;;;;;;;13.00;71.80;;;;;;4120835;28;19918;-87
2023/05/15 05:41:26;;;;;;;;;;;13.10;71.60;;;;;;4133751;28;19961;-88
2023/05/15 05:43:26;;;;;;;;;;;13.20;71.90;;;;;;4135590;28;19917;-86
2023/05/15 05:45:27;;;;;;;;;;;13.40;71.90;;;;;;4134101;28;20012;-86
2023/05/15 05:47:28;;;;;;;;;;;13.40;70.00;;;;;;4117994;28;20292;-86
2023/05/15 05:49:28;;;;;;;;;;;13.50;69.00;;;;;;4122215;28;19918;-87
2023/05/15 05:51:30;;;;;;;;;;;13.70;68.50;;;;;;4133752;28;20167;-86
2023/05/15 05:53:31;;;;;;;;;;;13.70;68.30;;;;;;4133720;28;19939;-86
2023/05/15 05:55:31;;;;;;;;;;;13.70;68.20;;;;;;4116464;28;19917;-86
2023/05/15 05:57:32;;;;;;;;;;;13.80;67.70;;;;;;4137631;28;20534;-83
2023/05/15 05:59:34;;;;;;;;;;;13.90;67.60;;;;;;4122342;28;19922;-85
2023/05/15 06:01:35;;;;;;;;;;;14.00;67.00;;;;;;4138026;28;19983;-85
2023/05/15 06:03:41;;;;;;;;;;;14.00;66.30;;;;;;4122274;28;19914;-84
2023/05/15 06:05:42;;;;;;;;;;;14.00;66.20;;;;;;4118993;28;19972;-84
2023/05/15 06:07:43;;;;;;;;;;;14.10;66.20;;;;;;4135532;28;19918;-85
2023/05/15 06:09:44;;;;;;;;;;;14.20;66.20;;;;;;4119382;28;19931;-84
2023/05/15 06:11:45;;;;;;;;;;;14.20;66.90;;;;;;4138583;28;19914;-84
2023/05/15 06:13:49;;;;;;;;;;;14.20;66.60;;;;;;4134958;28;20013;-85
2023/05/15 06:15:50;;;;;;;;;;;14.30;66.80;;;;;;4135690;28;19921;-84
2023/05/15 06:17:50;;;;;;;;;;;14.30;66.80;;;;;;4120826;28;20272;-84
2023/05/15 06:19:51;;;;;;;;;;;14.40;66.70;;;;;;4136281;28;19921;-85
2023/05/15 06:21:52;;;;;;;;;;;14.50;67.30;;;;;;4138663;28;19921;-85
2023/05/15 06:23:52;;;;;;;;;;;14.50;66.70;;;;;;4124675;28;19960;-84
2023/05/15 06:25:53;;;;;;;;;;;14.50;66.20;;;;;;4137145;28;19924;-85
2023/05/15 06:27:54;;;;;;;;;;;14.70;66.80;;;;;;4121447;28;20004;-84
2023/05/15 06:29:55;;;;;;;;;;;14.70;67.10;;;;;;4122665;28;19953;-85
2023/05/15 06:31:55;;;;;;;;;;;14.80;66.80;;;;;;4140886;28;19921;-84
2023/05/15 06:33:56;;;;;;;;;;;14.90;66.60;;;;;;4121624;28;19922;-85
2023/05/15 06:35:57;;;;;;;;;;;15.00;66.70;;;;;;4139776;28;20427;-85
2023/05/15 06:37:58;;;;;;;;;;;15.10;66.30;;;;;;4138620;28;20394;-85
2023/05/15 06:39:58;;;;;;;;;;;15.20;66.50;;;;;;4123590;28;19917;-85
2023/05/15 06:42:00;;;;;;;;;;;15.20;66.40;;;;;;4123176;28;20579;-84
2023/05/15 06:44:00;;;;;;;;;;;15.30;66.50;;;;;;4140622;28;19917;-85
2023/05/15 06:46:03;;;;;;;;;;;15.30;66.80;;;;;;4118719;28;19941;-85
2023/05/15 06:48:04;;;;;;;;;;;15.40;67.60;;;;;;4118009;28;19918;-85
2023/05/15 06:50:05;;;;;;;;;;;15.50;66.80;;;;;;4140110;28;20619;-85
2023/05/15 06:52:14;;;;;;;;;;;15.50;66.70;;;;;;4124450;28;19949;-85
2023/05/15 06:54:35;;;;;;;;;;;15.60;67.00;;;;;;4136367;28;19996;-85
2023/05/15 06:56:58;;;;;;;;;;;15.70;68.50;;;;;;4131074;28;19985;-85
2023/05/15 06:59:25;;;;;;;;;;;15.90;68.30;;;;;;4136116;28;20009;-85
2023/05/15 07:01:59;;;;;;;;;;;16.10;68.30;;;;;;4133026;28;19922;-85
2023/05/15 07:04:19;;;;;;;;;;;16.20;67.80;;;;;;4138118;28;19917;-86
2023/05/15 07:06:46;;;;;;;;;;;16.30;67.50;;;;;;4122085;28;20002;-85
2023/05/15 07:09:09;;;;;;;;;;;16.40;67.50;;;;;;4133217;28;19917;-85
2023/05/15 07:11:32;;;;;;;;;;;16.50;65.90;;;;;;4122432;28;19918;-86
2023/05/15 07:13:52;;;;;;;;;;;16.70;65.00;;;;;;4131402;28;19925;-85
2023/05/15 07:16:13;;;;;;;;;;;16.80;65.00;;;;;;4135927;28;19921;-84
2023/05/15 07:18:34;;;;;;;;;;;17.00;62.30;;;;;;4124554;28;19980;-86
2023/05/15 07:20:55;;;;;;;;;;;17.10;61.80;;;;;;4138340;28;19953;-85
2023/05/15 07:23:15;;;;;;;;;;;17.20;61.20;;;;;;4140284;28;19968;-86
2023/05/15 07:25:36;;;;;;;;;;;17.30;60.10;;;;;;4151765;28;19948;-85
2023/05/15 07:27:37;;;;;;;;;;;17.40;55.80;;;;;;4138295;28;19914;-86
2023/05/15 07:29:38;;;;;;;;;;;17.40;57.10;;;;;;4153106;28;19962;-86
2023/05/15 07:31:40;;;;;;;;;;;17.60;54.80;;;;;;4142933;28;19936;-85
2023/05/15 07:33:41;;;;;;;;;;;17.70;56.10;;;;;;4122730;28;19906;-85
2023/05/15 07:35:42;;;;;;;;;;;17.80;56.40;;;;;;4125433;28;19926;-85
2023/05/15 07:37:45;;;;;;;;;;;17.80;56.80;;;;;;4140644;28;21268;-86
2023/05/15 07:39:46;;;;;;;;;;;18.00;57.30;;;;;;4139743;28;19926;-86
2023/05/15 07:41:46;;;;;;;;;;;18.10;57.60;;;;;;4154684;28;19906;-86
2023/05/15 07:43:47;;;;;;;;;;;18.20;57.00;;;;;;4157968;28;19937;-86
2023/05/15 07:45:48;;;;;;;;;;;18.20;54.60;;;;;;4142535;28;19918;-85
2023/05/15 07:47:49;;;;;;;;;;;18.40;55.40;;;;;;4159289;28;19924;-86
2023/05/15 07:49:50;;;;;;;;;;;18.50;53.10;;;;;;4154377;28;19921;-85
2023/05/15 07:51:50;;;;;;;;;;;18.60;53.90;;;;;;4137421;28;19929;-86
2023/05/15 07:53:51;;;;;;;;;;;18.70;55.60;;;;;;4123793;28;19918;-86
2023/05/15 07:55:58;;;;;;;;;;;18.80;54.10;;;;;;4151224;28;19921;-86
2023/05/15 07:58:01;;;;;;;;;;;18.90;51.40;;;;;;4125572;28;19915;-85
2023/05/15 08:00:09;;;;;;;;;;;19.00;49.10;;;;;;4133559;28;19945;-86
2023/05/15 08:02:12;;;;;;;;;;;19.00;49.40;;;;;;4152506;28;19932;-85
2023/05/15 08:04:13;;;;;;;;;;;19.10;47.90;;;;;;4142574;28;19926;-85
2023/05/15 08:06:14;;;;;;;;;;;19.10;46.30;;;;;;4139923;28;19933;-85
2023/05/15 08:08:18;;;;;;;;;;;19.20;47.00;;;;;;4140917;28;19933;-85
2023/05/15 08:10:18;;;;;;;;;;;19.20;46.10;;;;;;4140057;28;20043;-86
2023/05/15 08:12:22;;;;;;;;;;;19.30;46.80;;;;;;4158528;28;19936;-85
2023/05/15 08:14:23;;;;;;;;;;;19.30;47.10;;;;;;4139463;28;19946;-84
2023/05/15 08:16:23;;;;;;;;;;;19.30;44.40;;;;;;4137377;28;19913;-86
2023/05/15 08:18:27;;;;;;;;;;;19.30;41.90;;;;;;4134601;28;19926;-86
2023/05/15 08:20:27;;;;;;;;;;;19.30;43.00;;;;;;4136060;28;19914;-86
2023/05/15 08:22:29;;;;;;;;;;;19.40;44.70;;;;;;4146249;28;19913;-86
2023/05/15 08:24:29;;;;;;;;;;;19.40;45.10;;;;;;4148114;28;19928;-86
2023/05/15 08:26:30;;;;;;;;;;;19.40;42.40;;;;;;4149353;28;19925;-86
2023/05/15 08:28:31;;;;;;;;;;;19.40;42.30;;;;;;4152734;28;20141;-86
2023/05/15 08:30:32;;;;;;;;;;;19.40;45.00;;;;;;4139309;28;19925;-85
2023/05/15 08:32:32;;;;;;;;;;;19.40;43.70;;;;;;4152606;28;19918;-85
2023/05/15 08:34:33;;;;;;;;;;;19.50;44.90;;;;;;4145537;28;19948;-86
2023/05/15 08:36:34;;;;;;;;;;;19.50;46.10;;;;;;4132711;28;19925;-87
2023/05/15 08:38:35;;;;;;;;;;;19.50;46.20;;;;;;4138819;28;19921;-86
2023/05/15 08:40:35;;;;;;;;;;;19.50;46.70;;;;;;4125662;28;19922;-85
2023/05/15 08:42:51;;;;;;;;;;;19.60;47.40;;;;;;4135921;28;19957;-86
2023/05/15 08:45:02;;;;;;;;;;;19.60;47.80;;;;;;4135585;28;19918;-86
2023/05/15 08:47:03;;;;;;;;;;;19.60;46.00;;;;;;4120824;28;19922;-85
2023/05/15 08:49:07;;;;;;;;;;;19.60;44.70;;;;;;4119799;28;19918;-86
2023/05/15 08:51:09;;;;;;;;;;;19.60;45.60;;;;;;4137845;28;20391;-86
2023/05/15 08:53:13;;;;;;;;;;;19.70;46.50;;;;;;4120173;28;20939;-86
2023/05/15 08:55:37;;;;;;;;;;;19.60;46.40;;;;;;4136847;28;20000;-86
2023/05/15 08:57:57;;;;;;;;;;;19.70;47.10;;;;;;4121343;28;19918;-86
2023/05/15 09:00:19;;;;;;;;;;;19.70;46.90;;;;;;4138343;28;19917;-86
2023/05/15 09:02:45;;;;;;;;;;;19.70;47.60;;;;;;4121828;28;19971;-86
2023/05/15 09:05:15;;;;;;;;;;;19.80;45.30;;;;;;4122294;28;19921;-86
2023/05/15 09:07:43;;;;;;;;;;;19.80;46.60;;;;;;4120450;28;19917;-86
2023/05/15 09:10:08;;;;;;;;;;;19.90;43.70;;;;;;4133422;28;19925;-86
2023/05/15 09:12:16;;;;;;;;;;;19.80;42.30;;;;;;4150207;23;19938;-86
2023/05/15 09:14:16;;;;;;;;;;;20.00;44.00;;;;;;4104230;28;20001;-86
2023/05/15 09:16:19;;;;;;;;;;;20.00;45.00;;;;;;4134781;28;22528;-85
2023/05/15 09:18:20;;;;;;;;;;;20.10;43.60;;;;;;4087627;28;19918;-85
2023/05/15 09:20:24;;;;;;;;;;;20.10;42.20;;;;;;4119656;28;19921;-86
2023/05/15 09:22:25;;;;;;;;;;;20.20;41.60;;;;;;4118161;28;20012;-86
2023/05/15 09:24:27;;;;;;;;;;;20.20;40.80;;;;;;4118609;28;20728;-86
2023/05/15 09:26:37;;;;;;;;;;;20.20;40.70;;;;;;4115451;28;19922;-84
2023/05/15 09:28:38;;;;;;;;;;;20.20;41.10;;;;;;4086000;28;19922;-87
2023/05/15 09:30:42;;;;;;;;;;;20.20;41.60;;;;;;4118806;28;19918;-85
2023/05/15 09:32:47;;;;;;;;;;;20.20;40.70;;;;;;4120354;28;19920;-85
2023/05/15 09:35:03;;;;;;;;;;;20.20;40.80;;;;;;4092336;28;19939;-86
2023/05/15 09:37:26;;;;;;;;;;;20.20;39.90;;;;;;4118343;28;19918;-86
2023/05/15 09:39:26;;;;;;;;;;;20.20;41.50;;;;;;4084175;28;19926;-86
2023/05/15 09:41:27;;;;;;;;;;;20.30;41.20;;;;;;4085614;28;20318;-87
2023/05/15 09:43:32;;;;;;;;;;;20.30;42.20;;;;;;4105182;28;19972;-86
2023/05/15 09:45:32;;;;;;;;;;;20.30;42.50;;;;;;4108214;28;19965;-86
2023/05/15 09:47:33;;;;;;;;;;;20.40;43.10;;;;;;4102249;28;19918;-86
2023/05/15 09:49:34;;;;;;;;;;;20.40;43.10;;;;;;4105212;28;19918;-86
2023/05/15 09:51:35;;;;;;;;;;;20.40;42.40;;;;;;4088472;28;19926;-86
2023/05/15 09:53:49;;;;;;;;;;;20.40;42.90;;;;;;4115302;28;19926;-86
2023/05/15 09:56:01;;;;;;;;;;;20.50;42.90;;;;;;4085810;28;19930;-84
2023/05/15 09:58:24;;;;;;;;;;;20.50;42.30;;;;;;4123186;28;19922;-86
2023/05/15 10:03:26;;;;;;;;;;;20.60;43.10;;;;;;3996249;29;19925;-85
2023/05/15 10:05:28;;;;;;;;;;;20.70;42.80;;;;;;3985068;29;19982;-86
2023/05/15 10:07:57;;;;;;;;;;;20.80;43.00;;;;;;3998474;29;19917;-86
2023/05/15 10:09:58;;;;;;;;;;;20.80;42.40;;;;;;3987517;29;19924;-85
2023/05/15 10:11:59;;;;;;;;;;;20.90;41.20;;;;;;4000654;29;19954;-86
2023/05/15 10:14:05;;;;;;;;;;;20.90;42.00;;;;;;3983246;29;20015;-87
2023/05/15 10:16:19;;;;;;;;;;;21.00;40.10;;;;;;3983361;29;19917;-86
2023/05/15 10:18:21;;;;;;;;;;;21.10;40.40;;;;;;3979333;29;19924;-86
2023/05/15 10:20:34;;;;;;;;;;;21.10;37.90;;;;;;3987443;29;19962;-85
2023/05/15 10:22:40;;;;;;;;;;;21.10;38.00;;;;;;3982809;29;19977;-87
2023/05/15 10:24:56;;;;;;;;;;;21.20;39.20;;;;;;3967666;29;19929;-87
2023/05/15 10:27:05;;;;;;;;;;;21.20;38.80;;;;;;3971407;29;21139;-87
2023/05/15 10:29:14;;;;;;;;;;;21.20;37.90;;;;;;3980264;29;20417;-86
2023/05/15 10:31:19;;;;;;;;;;;21.30;37.50;;;;;;3972806;29;19925;-86
2023/05/15 10:33:25;;;;;;;;;;;21.30;38.20;;;;;;3979007;29;20606;-86
2023/05/15 10:35:32;;;;;;;;;;;21.30;38.70;;;;;;3987957;29;19921;-86
2023/05/15 10:37:45;;;;;;;;;;;21.30;38.60;;;;;;4003252;29;19931;-86
2023/05/15 10:45:14;;;;;;;;;;;21.50;37.50;;;;;;4064313;29;19923;-87
2023/05/15 10:47:15;;;;;;;;;;;21.50;37.40;;;;;;4052524;29;19934;-87
2023/05/15 10:49:36;;;;;;;;;;;21.60;38.40;;;;;;4067922;29;19934;-86
2023/05/15 10:51:41;;;;;;;;;;;21.60;38.30;;;;;;4036340;29;20424;-86
2023/05/15 10:53:44;;;;;;;;;;;21.60;39.00;;;;;;4064288;29;19966;-86
2023/05/15 10:55:47;;;;;;;;;;;21.70;38.30;;;;;;4036840;29;20464;-86
2023/05/15 10:57:49;;;;;;;;;;;21.70;37.00;;;;;;4065046;29;20527;-85
2023/05/15 10:59:55;;;;;;;;;;;21.70;38.70;;;;;;4068058;29;19965;-86
2023/05/15 11:02:18;;;;;;;;;;;21.80;38.30;;;;;;4056034;29;20100;-86
2023/05/15 11:04:30;;;;;;;;;;;21.80;38.20;;;;;;4052745;29;19924;-86
2023/05/15 11:06:36;;;;;;;;;;;21.80;39.10;;;;;;4036618;29;20095;-87
2023/05/15 11:08:41;;;;;;;;;;;21.80;39.00;;;;;;4050069;29;19919;-86
2023/05/15 11:10:42;;;;;;;;;;;21.90;39.20;;;;;;4063421;29;19927;-86
2023/05/15 11:13:01;;;;;;;;;;;21.90;39.00;;;;;;4051116;29;20050;-86
2023/05/15 11:17:25;;;;;;;;;;;21.90;38.20;;;;;;4068164;29;19923;-85
2023/05/15 11:19:35;;;;;;;;;;;21.90;37.00;;;;;;4050092;29;20031;-86
2023/05/15 11:21:45;;;;;;;;;;;21.90;36.20;;;;;;4054417;28;19942;-86
2023/05/15 11:24:02;;;;;;;;;;;21.90;36.90;;;;;;4097595;28;19965;-86
2023/05/15 11:26:09;;;;;;;;;;;21.90;37.10;;;;;;4104363;28;19926;-86
2023/05/15 11:28:21;;;;;;;;;;;21.90;36.00;;;;;;4096747;28;20009;-86
2023/05/15 11:32:44;;;;;;;;;;;21.90;35.90;;;;;;4176128;23;19937;-85
2023/05/15 11:34:51;;;;;;;;;;;21.90;36.10;;;;;;4135877;28;20010;-84
2023/05/15 11:36:52;;;;;;;;;;;21.90;36.70;;;;;;4135935;28;20063;-84
2023/05/15 11:38:54;;;;;;;;;;;22.00;37.30;;;;;;4126515;28;19922;-83
2023/05/15 11:40:57;;;;;;;;;;;22.00;37.40;;;;;;4119676;28;19933;-84
2023/05/15 11:43:22;;;;;;;;;;;22.00;37.50;;;;;;4117692;28;20616;-85
2023/05/15 11:45:22;;;;;;;;;;;22.00;36.40;;;;;;4111337;28;20081;-83
2023/05/15 11:47:24;;;;;;;;;;;22.00;35.30;;;;;;4121516;28;19960;-83
2023/05/15 11:49:25;;;;;;;;;;;22.00;36.10;;;;;;4122157;28;21398;-83
2023/05/15 11:51:32;;;;;;;;;;;22.00;36.90;;;;;;4119077;28;19922;-82
2023/05/15 11:53:41;;;;;;;;;;;22.10;37.10;;;;;;4122441;28;19922;-84
2023/05/15 11:56:01;;;;;;;;;;;22.10;36.60;;;;;;4120171;28;19944;-82
2023/05/15 11:58:32;;;;;;;;;;;22.10;37.70;;;;;;4122307;28;19921;-83
2023/05/15 12:03:02;;;;;;;;;;;22.20;36.20;;;;;;4393251;23;20395;-85
2023/05/15 12:05:16;;;;;;;;;;;22.30;37.30;;;;;;4100845;28;19917;-84
2023/05/15 12:07:30;;;;;;;;;;;22.20;37.20;;;;;;4117808;28;19940;-85
2023/05/15 12:09:47;;;;;;;;;;;22.30;35.40;;;;;;4110263;28;20659;-85
2023/05/15 12:12:04;;;;;;;;;;;22.30;36.90;;;;;;4094362;28;20327;-83
2023/05/15 12:14:14;;;;;;;;;;;22.30;36.60;;;;;;4119814;28;19922;-85
2023/05/15 12:16:22;;;;;;;;;;;22.40;36.80;;;;;;4102713;28;20112;-85
2023/05/15 12:18:31;;;;;;;;;;;22.40;36.90;;;;;;4106169;28;19921;-85
2023/05/15 12:21:05;;;;;;;;;;;22.40;36.70;;;;;;4086283;28;19922;-85
2023/05/15 12:23:19;;;;;;;;;;;22.50;35.40;;;;;;4083112;28;19922;-86
2023/05/15 12:25:34;;;;;;;;;;;22.40;32.40;;;;;;4096349;28;20005;-85
2023/05/15 12:28:03;;;;;;;;;;;22.40;33.10;;;;;;4101216;28;19929;-86
2023/05/15 12:32:35;;;;;;;;;;;22.40;34.90;;;;;;3223416;26;20033;-85
2023/05/15 12:37:17;;;;;;;;;;;22.40;32.20;;;;;;4058967;29;19929;-85
2023/05/15 12:39:24;;;;;;;;;;;22.50;33.80;;;;;;4057234;29;20638;-85
2023/05/15 12:41:35;;;;;;;;;;;22.50;34.40;;;;;;4050488;29;19923;-84
2023/05/15 12:43:58;;;;;;;;;;;22.50;34.30;;;;;;4040745;29;19923;-86
2023/05/15 12:46:43;;;;;;;;;;;22.50;33.50;;;;;;4039368;29;19927;-85
2023/05/15 12:48:55;;;;;;;;;;;22.50;33.90;;;;;;4032365;29;19975;-85
2023/05/15 12:51:37;;;;;;;;;;;22.50;31.30;;;;;;4029258;29;20107;-85
2023/05/15 12:54:01;;;;;;;;;;;22.60;32.40;;;;;;4042158;29;19930;-85
2023/05/15 12:56:33;;;;;;;;;;;22.60;33.30;;;;;;4044295;29;20346;-85
2023/05/15 12:59:00;;;;;;;;;;;22.60;30.80;;;;;;4032431;29;21026;-85
2023/05/15 13:01:46;;;;;;;;;;;22.60;30.60;;;;;;4048695;29;19981;-86
2023/05/15 13:04:17;;;;;;;;;;;22.60;31.60;;;;;;4049704;29;20042;-86
2023/05/15 13:06:56;;;;;;;;;;;22.60;30.60;;;;;;4049237;29;19927;-86
2023/05/15 13:09:32;;;;;;;;;;;22.50;31.10;;;;;;4037171;29;20847;-85